ALK132 VOMD-VCBI
Flight info
| Callsign | ALK132 |
|---|---|
| Flight time | 0h 49m |
| Altitude | 25000 |
| Route | MDI M641 BIKOK BIKOK1A |
| Aircraft | A21N/M-SDE2E3FGHIRWXY/LB1 |
Departure
| Time | 2026-04-29 23:38 |
|---|---|
| Airport | Madurai Airport (VOMD) |
Arrival
| Time | 2026-04-30 00:27 |
|---|---|
| Airport | Bandaranaike International Colombo Airport (VCBI) |
| Time | Latitude | Longitude | Altitude | Speed | Heading |
|---|---|---|---|---|---|
| 2026-04-29 23:24 | 9.83778 | 78.08965 | 464 ft | 0 kts | 355° |
| 2026-04-29 23:26 | 9.83770 | 78.08966 | 465 ft | 3 kts | 355° |
| 2026-04-29 23:26 | 9.83752 | 78.08967 | 463 ft | 3 kts | 355° |
| 2026-04-29 23:26 | 9.83733 | 78.08969 | 465 ft | 3 kts | 355° |
| 2026-04-29 23:27 | 9.83714 | 78.08970 | 465 ft | 3 kts | 355° |
| 2026-04-29 23:27 | 9.83695 | 78.08972 | 462 ft | 3 kts | 355° |
| 2026-04-29 23:27 | 9.83677 | 78.08969 | 462 ft | 3 kts | 47° |
| 2026-04-29 23:27 | 9.83671 | 78.08959 | 461 ft | 0 kts | 86° |
| 2026-04-29 23:29 | 9.83671 | 78.08956 | 466 ft | 3 kts | 97° |
| 2026-04-29 23:29 | 9.83674 | 78.08939 | 466 ft | 3 kts | 101° |
| 2026-04-29 23:29 | 9.83677 | 78.08921 | 467 ft | 3 kts | 101° |
| 2026-04-29 23:29 | 9.83679 | 78.08911 | 467 ft | 0 kts | 101° |
| 2026-04-29 23:30 | 9.83678 | 78.08915 | 467 ft | 1 kts | 101° |
| 2026-04-29 23:31 | 9.83676 | 78.08917 | 467 ft | 0 kts | 129° |
| 2026-04-29 23:31 | 9.83675 | 78.08917 | 467 ft | 0 kts | 139° |
| 2026-04-29 23:31 | 9.83674 | 78.08918 | 467 ft | 0 kts | 155° |
| 2026-04-29 23:31 | 9.83664 | 78.08920 | 464 ft | 3 kts | 167° |
| 2026-04-29 23:32 | 9.83636 | 78.08924 | 466 ft | 5 kts | 172° |
| 2026-04-29 23:32 | 9.83603 | 78.08923 | 466 ft | 5 kts | 195° |
| 2026-04-29 23:32 | 9.83570 | 78.08913 | 466 ft | 5 kts | 197° |
| 2026-04-29 23:32 | 9.83547 | 78.08912 | 466 ft | 1 kts | 136° |
| 2026-04-29 23:33 | 9.83536 | 78.08926 | 466 ft | 4 kts | 130° |
| 2026-04-29 23:33 | 9.83515 | 78.08951 | 465 ft | 6 kts | 130° |
| 2026-04-29 23:33 | 9.83482 | 78.08991 | 464 ft | 9 kts | 128° |
| 2026-04-29 23:33 | 9.83450 | 78.09067 | 462 ft | 14 kts | 100° |
| 2026-04-29 23:34 | 9.83454 | 78.09187 | 461 ft | 22 kts | 86° |
| 2026-04-29 23:34 | 9.83466 | 78.09374 | 460 ft | 32 kts | 86° |
| 2026-04-29 23:34 | 9.83485 | 78.09627 | 459 ft | 39 kts | 85° |
| 2026-04-29 23:34 | 9.83506 | 78.09901 | 456 ft | 39 kts | 85° |
| 2026-04-29 23:35 | 9.83531 | 78.10041 | 452 ft | 14 kts | 56° |
| 2026-04-29 23:35 | 9.83547 | 78.10129 | 452 ft | 10 kts | 124° |
| 2026-04-29 23:35 | 9.83520 | 78.10135 | 452 ft | 2 kts | 232° |
| 2026-04-29 23:35 | 9.83520 | 78.10128 | 452 ft | 2 kts | 267° |
| 2026-04-29 23:36 | 9.83520 | 78.10113 | 453 ft | 0 kts | 268° |
| 2026-04-29 23:37 | 9.83517 | 78.10056 | 454 ft | 34 kts | 268° |
| 2026-04-29 23:37 | 9.83491 | 78.09640 | 459 ft | 66 kts | 265° |
| 2026-04-29 23:37 | 9.83439 | 78.09031 | 463 ft | 118 kts | 266° |
| 2026-04-29 23:38 | 9.83374 | 78.08016 | 653 ft | 156 kts | 266° |
| 2026-04-29 23:38 | 9.83300 | 78.06862 | 1042 ft | 174 kts | 266° |
| 2026-04-29 23:38 | 9.83219 | 78.05614 | 1618 ft | 180 kts | 266° |
| 2026-04-29 23:38 | 9.83136 | 78.04335 | 2244 ft | 182 kts | 266° |
| 2026-04-29 23:39 | 9.83052 | 78.03046 | 2862 ft | 184 kts | 266° |
| 2026-04-29 23:39 | 9.82971 | 78.01808 | 3351 ft | 177 kts | 266° |
| 2026-04-29 23:39 | 9.82893 | 78.00599 | 3781 ft | 174 kts | 266° |
| 2026-04-29 23:39 | 9.82599 | 77.99363 | 4102 ft | 198 kts | 230° |
| 2026-04-29 23:40 | 9.81326 | 77.98716 | 4397 ft | 223 kts | 178° |
| 2026-04-29 23:40 | 9.79784 | 77.99174 | 4932 ft | 241 kts | 157° |
| 2026-04-29 23:40 | 9.78234 | 77.99978 | 5560 ft | 258 kts | 152° |
| 2026-04-29 23:40 | 9.76601 | 78.00848 | 6241 ft | 268 kts | 153° |
| 2026-04-29 23:41 | 9.74946 | 78.01722 | 6967 ft | 273 kts | 153° |
| 2026-04-29 23:41 | 9.73248 | 78.02619 | 7721 ft | 276 kts | 153° |
| 2026-04-29 23:41 | 9.71529 | 78.03525 | 8461 ft | 279 kts | 153° |
| 2026-04-29 23:41 | 9.69791 | 78.04442 | 9227 ft | 282 kts | 153° |
| 2026-04-29 23:42 | 9.69717 | 78.04480 | 9255 ft | 283 kts | 153° |
| 2026-04-29 23:42 | 9.69596 | 78.04544 | 9315 ft | 283 kts | 153° |
| 2026-04-29 23:43 | 9.67836 | 78.05472 | 10082 ft | 286 kts | 153° |
| 2026-04-29 23:43 | 9.66066 | 78.06404 | 10828 ft | 292 kts | 153° |
| 2026-04-29 23:43 | 9.64238 | 78.07365 | 11635 ft | 298 kts | 153° |
| 2026-04-29 23:43 | 9.62376 | 78.08344 | 12447 ft | 302 kts | 153° |
| 2026-04-29 23:44 | 9.60514 | 78.09321 | 13261 ft | 306 kts | 153° |
| 2026-04-29 23:44 | 9.58607 | 78.10321 | 14075 ft | 309 kts | 153° |
| 2026-04-29 23:44 | 9.56683 | 78.11329 | 14916 ft | 312 kts | 153° |
| 2026-04-29 23:44 | 9.54746 | 78.12343 | 15734 ft | 313 kts | 153° |
| 2026-04-29 23:45 | 9.53470 | 78.13010 | 16263 ft | 314 kts | 153° |
| 2026-04-29 23:45 | 9.50918 | 78.14344 | 17289 ft | 314 kts | 153° |
| 2026-04-29 23:45 | 9.49622 | 78.15021 | 17751 ft | 318 kts | 153° |
| 2026-04-29 23:45 | 9.46917 | 78.16437 | 18316 ft | 334 kts | 155° |
| 2026-04-29 23:46 | 9.45474 | 78.17043 | 18623 ft | 341 kts | 161° |
| 2026-04-29 23:46 | 9.42405 | 78.18006 | 19233 ft | 354 kts | 161° |
| 2026-04-29 23:46 | 9.40048 | 78.18841 | 19696 ft | 363 kts | 161° |
| 2026-04-29 23:46 | 9.38441 | 78.19424 | 20002 ft | 369 kts | 160° |
| 2026-04-29 23:47 | 9.35187 | 78.20614 | 20610 ft | 380 kts | 160° |
| 2026-04-29 23:47 | 9.33487 | 78.21239 | 20932 ft | 385 kts | 160° |
| 2026-04-29 23:47 | 9.30969 | 78.22166 | 21373 ft | 392 kts | 160° |
| 2026-04-29 23:47 | 9.28378 | 78.23120 | 21825 ft | 399 kts | 160° |
| 2026-04-29 23:48 | 9.25742 | 78.24092 | 22281 ft | 404 kts | 160° |
| 2026-04-29 23:48 | 9.23073 | 78.25076 | 22734 ft | 409 kts | 160° |
| 2026-04-29 23:48 | 9.20411 | 78.26058 | 23190 ft | 414 kts | 160° |
| 2026-04-29 23:48 | 9.17688 | 78.27062 | 23636 ft | 417 kts | 160° |
| 2026-04-29 23:49 | 9.14936 | 78.28076 | 24094 ft | 421 kts | 160° |
| 2026-04-29 23:49 | 9.12195 | 78.29087 | 24538 ft | 423 kts | 160° |
| 2026-04-29 23:49 | 9.09405 | 78.30115 | 24901 ft | 428 kts | 160° |
| 2026-04-29 23:49 | 9.06608 | 78.31146 | 24989 ft | 433 kts | 160° |
| 2026-04-29 23:50 | 9.03770 | 78.32192 | 24998 ft | 434 kts | 160° |
| 2026-04-29 23:50 | 9.00910 | 78.33245 | 25004 ft | 434 kts | 160° |
| 2026-04-29 23:50 | 8.95252 | 78.35329 | 24999 ft | 435 kts | 160° |
| 2026-04-29 23:51 | 8.92404 | 78.36377 | 24996 ft | 435 kts | 160° |
| 2026-04-29 23:51 | 8.89546 | 78.37429 | 24999 ft | 435 kts | 160° |
| 2026-04-29 23:51 | 8.86707 | 78.38474 | 25002 ft | 435 kts | 160° |
| 2026-04-29 23:51 | 8.83855 | 78.39523 | 25000 ft | 435 kts | 160° |
| 2026-04-29 23:52 | 8.81008 | 78.40571 | 25004 ft | 435 kts | 160° |
| 2026-04-29 23:52 | 8.78195 | 78.41605 | 24999 ft | 435 kts | 160° |
| 2026-04-29 23:52 | 8.75340 | 78.42655 | 24999 ft | 435 kts | 160° |
| 2026-04-29 23:52 | 8.72498 | 78.43701 | 24999 ft | 435 kts | 160° |
| 2026-04-29 23:53 | 8.69638 | 78.44752 | 25007 ft | 435 kts | 160° |
| 2026-04-29 23:53 | 8.66781 | 78.45802 | 24999 ft | 436 kts | 160° |
| 2026-04-29 23:53 | 8.63920 | 78.46854 | 25007 ft | 436 kts | 160° |
| 2026-04-29 23:53 | 8.61105 | 78.47888 | 25001 ft | 436 kts | 160° |
| 2026-04-29 23:54 | 8.58242 | 78.48940 | 24997 ft | 436 kts | 160° |
| 2026-04-29 23:54 | 8.55414 | 78.49979 | 25002 ft | 436 kts | 160° |
| 2026-04-29 23:54 | 8.52554 | 78.51060 | 24995 ft | 436 kts | 157° |
| 2026-04-29 23:54 | 8.49891 | 78.52456 | 25001 ft | 436 kts | 147° |
| 2026-04-29 23:55 | 8.47492 | 78.54344 | 25000 ft | 436 kts | 137° |
| 2026-04-29 23:55 | 8.45313 | 78.56499 | 24999 ft | 437 kts | 134° |
| 2026-04-29 23:55 | 8.43224 | 78.58682 | 25005 ft | 437 kts | 134° |
| 2026-04-29 23:55 | 8.41118 | 78.60913 | 24998 ft | 437 kts | 134° |
| 2026-04-29 23:56 | 8.39015 | 78.63145 | 24998 ft | 437 kts | 134° |
| 2026-04-29 23:56 | 8.36921 | 78.65370 | 25004 ft | 437 kts | 134° |
| 2026-04-29 23:56 | 8.34812 | 78.67610 | 25000 ft | 437 kts | 134° |
| 2026-04-29 23:56 | 8.32745 | 78.69804 | 25008 ft | 437 kts | 134° |
| 2026-04-29 23:57 | 8.30639 | 78.72039 | 24996 ft | 438 kts | 134° |
| 2026-04-29 23:57 | 8.28529 | 78.74279 | 25004 ft | 438 kts | 134° |
| 2026-04-29 23:57 | 8.26456 | 78.76478 | 25000 ft | 438 kts | 134° |
| 2026-04-29 23:57 | 8.24347 | 78.78716 | 24998 ft | 438 kts | 134° |
| 2026-04-29 23:58 | 8.22241 | 78.80950 | 25000 ft | 438 kts | 134° |
| 2026-04-29 23:58 | 8.20165 | 78.83151 | 24998 ft | 438 kts | 134° |
| 2026-04-29 23:58 | 8.18061 | 78.85383 | 25001 ft | 438 kts | 134° |
| 2026-04-29 23:58 | 8.15958 | 78.87612 | 25007 ft | 438 kts | 134° |
| 2026-04-29 23:59 | 8.13850 | 78.89847 | 24996 ft | 438 kts | 134° |
| 2026-04-29 23:59 | 8.11746 | 78.92077 | 24924 ft | 440 kts | 134° |
| 2026-04-29 23:59 | 8.09658 | 78.94290 | 24345 ft | 438 kts | 134° |
| 2026-04-29 23:59 | 8.07559 | 78.96513 | 23678 ft | 434 kts | 134° |
| 2026-04-30 00:00 | 8.05465 | 78.98732 | 23044 ft | 428 kts | 134° |
| 2026-04-30 00:00 | 8.03454 | 79.00862 | 22404 ft | 419 kts | 134° |
| 2026-04-30 00:00 | 8.01449 | 79.02985 | 21839 ft | 414 kts | 134° |
| 2026-04-30 00:00 | 7.99498 | 79.05051 | 21313 ft | 408 kts | 134° |
| 2026-04-30 00:01 | 7.97550 | 79.07114 | 20764 ft | 403 kts | 134° |
| 2026-04-30 00:01 | 7.95633 | 79.09144 | 20233 ft | 397 kts | 134° |
| 2026-04-30 00:01 | 7.93738 | 79.11150 | 19703 ft | 392 kts | 134° |
| 2026-04-30 00:01 | 7.91874 | 79.13122 | 19186 ft | 387 kts | 134° |
| 2026-04-30 00:02 | 7.90028 | 79.15076 | 18663 ft | 382 kts | 134° |
| 2026-04-30 00:02 | 7.88269 | 79.17076 | 18115 ft | 378 kts | 128° |
| 2026-04-30 00:02 | 7.86713 | 79.19183 | 17612 ft | 373 kts | 126° |
| 2026-04-30 00:02 | 7.85211 | 79.21310 | 17114 ft | 369 kts | 125° |
| 2026-04-30 00:03 | 7.83737 | 79.23409 | 16622 ft | 365 kts | 125° |
| 2026-04-30 00:03 | 7.82277 | 79.25486 | 16131 ft | 362 kts | 126° |
| 2026-04-30 00:03 | 7.80827 | 79.27547 | 15645 ft | 359 kts | 126° |
| 2026-04-30 00:03 | 7.79384 | 79.29593 | 15157 ft | 356 kts | 126° |
| 2026-04-30 00:04 | 7.77955 | 79.31619 | 14672 ft | 353 kts | 126° |
| 2026-04-30 00:04 | 7.76536 | 79.33630 | 14190 ft | 350 kts | 126° |
| 2026-04-30 00:04 | 7.75126 | 79.35627 | 13701 ft | 348 kts | 126° |
| 2026-04-30 00:04 | 7.73730 | 79.37604 | 13244 ft | 345 kts | 126° |
| 2026-04-30 00:05 | 7.72342 | 79.39569 | 12748 ft | 342 kts | 126° |
| 2026-04-30 00:05 | 7.70968 | 79.41514 | 12295 ft | 340 kts | 126° |
| 2026-04-30 00:05 | 7.69602 | 79.43448 | 11838 ft | 337 kts | 126° |
| 2026-04-30 00:05 | 7.68251 | 79.45361 | 11374 ft | 334 kts | 126° |
| 2026-04-30 00:06 | 7.66903 | 79.47268 | 10913 ft | 332 kts | 126° |
| 2026-04-30 00:06 | 7.65573 | 79.49149 | 10468 ft | 329 kts | 126° |
| 2026-04-30 00:06 | 7.64272 | 79.50990 | 10327 ft | 314 kts | 126° |
| 2026-04-30 00:06 | 7.63036 | 79.52739 | 10235 ft | 298 kts | 126° |
| 2026-04-30 00:07 | 7.61866 | 79.54394 | 10140 ft | 284 kts | 126° |
| 2026-04-30 00:07 | 7.60739 | 79.55988 | 9954 ft | 277 kts | 126° |
| 2026-04-30 00:07 | 7.59635 | 79.57549 | 9584 ft | 276 kts | 126° |
| 2026-04-30 00:07 | 7.58511 | 79.59138 | 9226 ft | 274 kts | 126° |
| 2026-04-30 00:08 | 7.57419 | 79.60683 | 8877 ft | 273 kts | 126° |
| 2026-04-30 00:08 | 7.56321 | 79.62234 | 8532 ft | 271 kts | 126° |
| 2026-04-30 00:08 | 7.55229 | 79.63778 | 8179 ft | 269 kts | 126° |
| 2026-04-30 00:08 | 7.54146 | 79.65309 | 7838 ft | 268 kts | 126° |
| 2026-04-30 00:09 | 7.53070 | 79.66830 | 7508 ft | 266 kts | 126° |
| 2026-04-30 00:09 | 7.51999 | 79.68344 | 7179 ft | 264 kts | 126° |
| 2026-04-30 00:09 | 7.51392 | 79.69201 | 6983 ft | 263 kts | 126° |
| 2026-04-30 00:11 | 7.51061 | 79.69668 | 6885 ft | 262 kts | 126° |
| 2026-04-30 00:11 | 7.50008 | 79.71157 | 6557 ft | 260 kts | 126° |
| 2026-04-30 00:12 | 7.48960 | 79.72637 | 6242 ft | 258 kts | 126° |
| 2026-04-30 00:12 | 7.47920 | 79.74105 | 5905 ft | 256 kts | 126° |
| 2026-04-30 00:12 | 7.46887 | 79.75564 | 5570 ft | 255 kts | 126° |
| 2026-04-30 00:12 | 7.45884 | 79.76981 | 5254 ft | 253 kts | 126° |
| 2026-04-30 00:13 | 7.44875 | 79.78406 | 5055 ft | 247 kts | 126° |
| 2026-04-30 00:13 | 7.43967 | 79.79688 | 4889 ft | 239 kts | 126° |
| 2026-04-30 00:13 | 7.43013 | 79.81034 | 4564 ft | 238 kts | 126° |
| 2026-04-30 00:13 | 7.42051 | 79.82394 | 4237 ft | 238 kts | 126° |
| 2026-04-30 00:14 | 7.41085 | 79.83756 | 3946 ft | 244 kts | 126° |
| 2026-04-30 00:14 | 7.40079 | 79.85175 | 3779 ft | 249 kts | 126° |
| 2026-04-30 00:14 | 7.39085 | 79.86579 | 3465 ft | 246 kts | 126° |
| 2026-04-30 00:14 | 7.38084 | 79.87991 | 3083 ft | 247 kts | 126° |
| 2026-04-30 00:15 | 7.37083 | 79.89404 | 2724 ft | 248 kts | 126° |
| 2026-04-30 00:15 | 7.36062 | 79.90768 | 2530 ft | 241 kts | 133° |
| 2026-04-30 00:15 | 7.34746 | 79.91793 | 2509 ft | 240 kts | 150° |
| 2026-04-30 00:15 | 7.33264 | 79.92569 | 2513 ft | 239 kts | 154° |
| 2026-04-30 00:16 | 7.31766 | 79.93290 | 2508 ft | 240 kts | 155° |
| 2026-04-30 00:16 | 7.30287 | 79.93997 | 2499 ft | 228 kts | 155° |
| 2026-04-30 00:16 | 7.28878 | 79.94667 | 2503 ft | 222 kts | 157° |
| 2026-04-30 00:16 | 7.27381 | 79.94828 | 2512 ft | 218 kts | 191° |
| 2026-04-30 00:17 | 7.25925 | 79.94394 | 2508 ft | 219 kts | 205° |
| 2026-04-30 00:17 | 7.24678 | 79.93532 | 2514 ft | 218 kts | 221° |
| 2026-04-30 00:17 | 7.23607 | 79.92596 | 2504 ft | 194 kts | 220° |
| 2026-04-30 00:17 | 7.22568 | 79.91776 | 2507 ft | 184 kts | 216° |
| 2026-04-30 00:18 | 7.21551 | 79.91015 | 2498 ft | 177 kts | 219° |
| 2026-04-30 00:18 | 7.20563 | 79.90249 | 2533 ft | 185 kts | 217° |
| 2026-04-30 00:18 | 7.19578 | 79.89506 | 2498 ft | 173 kts | 217° |
| 2026-04-30 00:18 | 7.18603 | 79.88772 | 2508 ft | 185 kts | 217° |
| 2026-04-30 00:19 | 7.17464 | 79.87914 | 2516 ft | 221 kts | 217° |
| 2026-04-30 00:19 | 7.16195 | 79.86956 | 2508 ft | 235 kts | 217° |
| 2026-04-30 00:19 | 7.14876 | 79.85963 | 2503 ft | 236 kts | 211° |
| 2026-04-30 00:19 | 7.13331 | 79.85458 | 2508 ft | 235 kts | 181° |
| 2026-04-30 00:20 | 7.11773 | 79.85828 | 2505 ft | 235 kts | 149° |
| 2026-04-30 00:20 | 7.10627 | 79.86979 | 2523 ft | 235 kts | 117° |
| 2026-04-30 00:20 | 7.10280 | 79.88607 | 2857 ft | 243 kts | 85° |
| 2026-04-30 00:20 | 7.10785 | 79.90182 | 3089 ft | 239 kts | 55° |
| 2026-04-30 00:21 | 7.11892 | 79.91422 | 3110 ft | 238 kts | 41° |
| 2026-04-30 00:21 | 7.13175 | 79.92483 | 3111 ft | 240 kts | 37° |
| 2026-04-30 00:21 | 7.14498 | 79.93512 | 3110 ft | 240 kts | 37° |
| 2026-04-30 00:21 | 7.15815 | 79.94528 | 3110 ft | 240 kts | 37° |
| 2026-04-30 00:22 | 7.17147 | 79.95554 | 3109 ft | 240 kts | 37° |
| 2026-04-30 00:22 | 7.18476 | 79.96579 | 3056 ft | 241 kts | 37° |
| 2026-04-30 00:22 | 7.19818 | 79.97614 | 2671 ft | 241 kts | 37° |
| 2026-04-30 00:22 | 7.21107 | 79.98608 | 2524 ft | 227 kts | 37° |
| 2026-04-30 00:23 | 7.22340 | 79.99560 | 2508 ft | 221 kts | 37° |
| 2026-04-30 00:23 | 7.23598 | 80.00423 | 2504 ft | 220 kts | 24° |
| 2026-04-30 00:23 | 7.25066 | 80.00800 | 2506 ft | 219 kts | 360° |
| 2026-04-30 00:23 | 7.26521 | 80.00430 | 2506 ft | 217 kts | 327° |
| 2026-04-30 00:24 | 7.27522 | 79.99326 | 2502 ft | 215 kts | 292° |
| 2026-04-30 00:24 | 7.27725 | 79.97869 | 2517 ft | 211 kts | 266° |
| 2026-04-30 00:24 | 7.27497 | 79.96505 | 2492 ft | 182 kts | 246° |
| 2026-04-30 00:24 | 7.26862 | 79.95478 | 2506 ft | 170 kts | 232° |
| 2026-04-30 00:25 | 7.26098 | 79.94593 | 2486 ft | 167 kts | 226° |
| 2026-04-30 00:25 | 7.25294 | 79.93813 | 2372 ft | 154 kts | 219° |
| 2026-04-30 00:25 | 7.24471 | 79.93155 | 2079 ft | 146 kts | 217° |
| 2026-04-30 00:25 | 7.23670 | 79.92541 | 1672 ft | 148 kts | 217° |
| 2026-04-30 00:26 | 7.22836 | 79.91934 | 1266 ft | 146 kts | 217° |
| 2026-04-30 00:26 | 7.22038 | 79.91324 | 891 ft | 144 kts | 219° |
| 2026-04-30 00:26 | 7.21253 | 79.90722 | 628 ft | 140 kts | 217° |
| 2026-04-30 00:26 | 7.20469 | 79.90153 | 400 ft | 141 kts | 216° |
| 2026-04-30 00:27 | 7.19681 | 79.89565 | 161 ft | 140 kts | 218° |
| 2026-04-30 00:27 | 7.18914 | 79.88979 | 34 ft | 132 kts | 217° |
| 2026-04-30 00:27 | 7.18316 | 79.88529 | 30 ft | 80 kts | 217° |
| 2026-04-30 00:27 | 7.18006 | 79.88292 | 32 ft | 43 kts | 217° |
| 2026-04-30 00:28 | 7.17891 | 79.88216 | 30 ft | 12 kts | 186° |
| 2026-04-30 00:28 | 7.17837 | 79.88257 | 32 ft | 10 kts | 126° |
| 2026-04-30 00:28 | 7.17793 | 79.88318 | 31 ft | 11 kts | 129° |
| 2026-04-30 00:28 | 7.17754 | 79.88323 | 31 ft | 4 kts | 207° |
| 2026-04-30 00:29 | 7.17728 | 79.88305 | 31 ft | 5 kts | 216° |
| 2026-04-30 00:29 | 7.17702 | 79.88285 | 31 ft | 5 kts | 216° |
| 2026-04-30 00:29 | 7.17674 | 79.88264 | 31 ft | 5 kts | 218° |
| 2026-04-30 00:29 | 7.17643 | 79.88249 | 31 ft | 5 kts | 175° |
| 2026-04-30 00:30 | 7.17614 | 79.88271 | 30 ft | 6 kts | 130° |
| 2026-04-30 00:30 | 7.17587 | 79.88305 | 30 ft | 7 kts | 127° |
| 2026-04-30 00:30 | 7.17559 | 79.88343 | 30 ft | 7 kts | 120° |
| 2026-04-30 00:30 | 7.17569 | 79.88380 | 30 ft | 6 kts | 44° |
| 2026-04-30 00:31 | 7.17600 | 79.88406 | 30 ft | 6 kts | 39° |
| 2026-04-30 00:31 | 7.17607 | 79.88411 | 30 ft | 0 kts | 37° |
| 2026-04-30 00:31 | 7.17609 | 79.88412 | 30 ft | 0 kts | 34° |